sensor_id;sensor_type;location;lat;lon;timestamp;P1;durP1;ratioP1;P2;durP2;ratioP2
4963;SDS011;2497;47.410;9.740;2023-12-28T00:01:53;10.63;;;3.10;;
4963;SDS011;2497;47.410;9.740;2023-12-28T00:04:20;3.00;;;2.10;;
4963;SDS011;2497;47.410;9.740;2023-12-28T00:06:47;15.17;;;5.70;;
4963;SDS011;2497;47.410;9.740;2023-12-28T00:09:14;4.00;;;3.67;;
4963;SDS011;2497;47.410;9.740;2023-12-28T00:11:41;7.97;;;2.80;;
4963;SDS011;2497;47.410;9.740;2023-12-28T00:14:09;4.37;;;3.00;;
4963;SDS011;2497;47.410;9.740;2023-12-28T00:16:37;8.37;;;3.40;;
4963;SDS011;2497;47.410;9.740;2023-12-28T00:19:04;2.93;;;2.73;;
4963;SDS011;2497;47.410;9.740;2023-12-28T00:21:32;7.27;;;3.47;;
4963;SDS011;2497;47.410;9.740;2023-12-28T00:23:59;7.97;;;4.00;;
4963;SDS011;2497;47.410;9.740;2023-12-28T00:26:26;5.27;;;3.90;;
4963;SDS011;2497;47.410;9.740;2023-12-28T00:28:54;4.47;;;2.70;;
4963;SDS011;2497;47.410;9.740;2023-12-28T00:31:21;12.40;;;3.63;;
4963;SDS011;2497;47.410;9.740;2023-12-28T00:33:55;5.97;;;4.47;;
4963;SDS011;2497;47.410;9.740;2023-12-28T00:36:23;6.87;;;2.50;;
4963;SDS011;2497;47.410;9.740;2023-12-28T00:38:50;5.27;;;4.77;;
4963;SDS011;2497;47.410;9.740;2023-12-28T00:41:17;5.40;;;3.03;;
4963;SDS011;2497;47.410;9.740;2023-12-28T00:43:44;3.40;;;2.37;;
4963;SDS011;2497;47.410;9.740;2023-12-28T00:46:11;7.83;;;3.30;;
4963;SDS011;2497;47.410;9.740;2023-12-28T00:48:38;6.00;;;4.60;;
4963;SDS011;2497;47.410;9.740;2023-12-28T00:51:07;2.60;;;2.40;;
4963;SDS011;2497;47.410;9.740;2023-12-28T00:53:34;10.33;;;3.60;;
4963;SDS011;2497;47.410;9.740;2023-12-28T00:56:01;1.97;;;1.73;;
4963;SDS011;2497;47.410;9.740;2023-12-28T00:58:29;5.77;;;3.10;;
4963;SDS011;2497;47.410;9.740;2023-12-28T01:00:56;5.53;;;3.10;;
4963;SDS011;2497;47.410;9.740;2023-12-28T01:03:26;1.77;;;1.67;;
4963;SDS011;2497;47.410;9.740;2023-12-28T01:05:53;5.27;;;4.00;;
4963;SDS011;2497;47.410;9.740;2023-12-28T01:08:21;2.97;;;2.53;;
4963;SDS011;2497;47.410;9.740;2023-12-28T01:10:48;2.73;;;2.20;;
4963;SDS011;2497;47.410;9.740;2023-12-28T01:13:15;4.07;;;2.43;;
4963;SDS011;2497;47.410;9.740;2023-12-28T01:15:42;3.20;;;2.40;;
4963;SDS011;2497;47.410;9.740;2023-12-28T01:18:10;4.33;;;1.70;;
4963;SDS011;2497;47.410;9.740;2023-12-28T01:20:37;3.07;;;2.80;;
4963;SDS011;2497;47.410;9.740;2023-12-28T01:23:04;2.03;;;1.90;;
4963;SDS011;2497;47.410;9.740;2023-12-28T01:25:33;1.10;;;1.00;;
4963;SDS011;2497;47.410;9.740;2023-12-28T01:28:00;3.27;;;1.43;;
4963;SDS011;2497;47.410;9.740;2023-12-28T01:30:28;1.30;;;1.20;;
4963;SDS011;2497;47.410;9.740;2023-12-28T01:32:55;10.53;;;3.40;;
4963;SDS011;2497;47.410;9.740;2023-12-28T01:35:22;3.40;;;2.20;;
4963;SDS011;2497;47.410;9.740;2023-12-28T01:37:51;2.50;;;2.23;;
4963;SDS011;2497;47.410;9.740;2023-12-28T01:40:19;2.00;;;1.30;;
4963;SDS011;2497;47.410;9.740;2023-12-28T01:42:47;15.17;;;1.73;;
4963;SDS011;2497;47.410;9.740;2023-12-28T01:45:14;1.83;;;1.43;;
4963;SDS011;2497;47.410;9.740;2023-12-28T01:47:42;1.20;;;1.10;;
4963;SDS011;2497;47.410;9.740;2023-12-28T01:50:10;1.00;;;0.80;;
4963;SDS011;2497;47.410;9.740;2023-12-28T01:52:37;1.93;;;1.37;;
4963;SDS011;2497;47.410;9.740;2023-12-28T01:55:04;2.50;;;1.43;;
4963;SDS011;2497;47.410;9.740;2023-12-28T01:57:33;0.90;;;0.80;;
4963;SDS011;2497;47.410;9.740;2023-12-28T02:00:05;2.17;;;1.47;;
4963;SDS011;2497;47.410;9.740;2023-12-28T02:02:34;1.33;;;0.87;;
4963;SDS011;2497;47.410;9.740;2023-12-28T02:05:02;3.43;;;2.00;;
4963;SDS011;2497;47.410;9.740;2023-12-28T02:07:30;1.10;;;1.00;;
4963;SDS011;2497;47.410;9.740;2023-12-28T02:09:59;0.80;;;0.80;;
4963;SDS011;2497;47.410;9.740;2023-12-28T02:12:26;0.80;;;0.70;;
4963;SDS011;2497;47.410;9.740;2023-12-28T02:14:57;0.83;;;0.70;;
4963;SDS011;2497;47.410;9.740;2023-12-28T02:17:26;0.87;;;0.87;;
4963;SDS011;2497;47.410;9.740;2023-12-28T02:19:59;0.80;;;0.80;;
4963;SDS011;2497;47.410;9.740;2023-12-28T02:22:30;7.50;;;1.27;;
4963;SDS011;2497;47.410;9.740;2023-12-28T02:25:02;1.00;;;0.80;;
4963;SDS011;2497;47.410;9.740;2023-12-28T02:27:30;0.80;;;0.70;;
4963;SDS011;2497;47.410;9.740;2023-12-28T02:29:57;0.87;;;0.77;;
4963;SDS011;2497;47.410;9.740;2023-12-28T02:32:28;1.20;;;1.10;;
4963;SDS011;2497;47.410;9.740;2023-12-28T02:35:05;1.10;;;1.00;;
4963;SDS011;2497;47.410;9.740;2023-12-28T02:37:37;2.83;;;1.13;;
4963;SDS011;2497;47.410;9.740;2023-12-28T02:40:07;0.97;;;0.87;;
4963;SDS011;2497;47.410;9.740;2023-12-28T02:42:39;0.90;;;0.80;;
4963;SDS011;2497;47.410;9.740;2023-12-28T02:45:06;4.60;;;1.20;;
4963;SDS011;2497;47.410;9.740;2023-12-28T02:47:34;0.80;;;0.70;;
4963;SDS011;2497;47.410;9.740;2023-12-28T02:50:01;0.80;;;0.80;;
4963;SDS011;2497;47.410;9.740;2023-12-28T02:52:29;1.60;;;1.50;;
4963;SDS011;2497;47.410;9.740;2023-12-28T02:54:56;0.80;;;0.80;;
4963;SDS011;2497;47.410;9.740;2023-12-28T02:57:25;1.37;;;1.03;;
4963;SDS011;2497;47.410;9.740;2023-12-28T02:59:52;1.23;;;1.00;;
4963;SDS011;2497;47.410;9.740;2023-12-28T03:02:19;0.80;;;0.80;;
4963;SDS011;2497;47.410;9.740;2023-12-28T03:04:46;3.27;;;1.60;;
4963;SDS011;2497;47.410;9.740;2023-12-28T03:07:13;3.73;;;3.43;;
4963;SDS011;2497;47.410;9.740;2023-12-28T03:09:40;2.27;;;2.07;;
4963;SDS011;2497;47.410;9.740;2023-12-28T03:12:08;3.80;;;1.47;;
4963;SDS011;2497;47.410;9.740;2023-12-28T03:14:39;2.80;;;2.30;;
4963;SDS011;2497;47.410;9.740;2023-12-28T03:17:06;1.40;;;1.30;;
4963;SDS011;2497;47.410;9.740;2023-12-28T03:19:33;5.13;;;1.30;;
4963;SDS011;2497;47.410;9.740;2023-12-28T03:22:02;4.10;;;2.43;;
4963;SDS011;2497;47.410;9.740;2023-12-28T03:24:29;3.03;;;1.37;;
4963;SDS011;2497;47.410;9.740;2023-12-28T03:26:56;2.80;;;1.70;;
4963;SDS011;2497;47.410;9.740;2023-12-28T03:29:26;1.27;;;1.10;;
4963;SDS011;2497;47.410;9.740;2023-12-28T03:31:55;2.40;;;2.07;;
4963;SDS011;2497;47.410;9.740;2023-12-28T03:34:23;4.20;;;1.50;;
4963;SDS011;2497;47.410;9.740;2023-12-28T03:36:51;3.23;;;2.20;;
4963;SDS011;2497;47.410;9.740;2023-12-28T03:39:18;1.20;;;1.10;;
4963;SDS011;2497;47.410;9.740;2023-12-28T03:41:48;1.20;;;1.10;;
4963;SDS011;2497;47.410;9.740;2023-12-28T03:44:18;1.20;;;1.10;;
4963;SDS011;2497;47.410;9.740;2023-12-28T03:46:45;1.75;;;1.40;;
4963;SDS011;2497;47.410;9.740;2023-12-28T03:49:16;2.03;;;1.47;;
4963;SDS011;2497;47.410;9.740;2023-12-28T03:51:43;3.00;;;1.57;;
4963;SDS011;2497;47.410;9.740;2023-12-28T03:54:15;1.00;;;0.90;;
4963;SDS011;2497;47.410;9.740;2023-12-28T03:56:43;1.10;;;1.00;;
4963;SDS011;2497;47.410;9.740;2023-12-28T03:59:10;5.13;;;2.50;;
4963;SDS011;2497;47.410;9.740;2023-12-28T04:01:37;1.20;;;1.10;;
4963;SDS011;2497;47.410;9.740;2023-12-28T04:04:07;3.80;;;1.77;;
4963;SDS011;2497;47.410;9.740;2023-12-28T04:06:36;2.00;;;1.80;;
4963;SDS011;2497;47.410;9.740;2023-12-28T04:09:06;2.33;;;2.13;;
4963;SDS011;2497;47.410;9.740;2023-12-28T04:11:33;4.23;;;2.17;;
4963;SDS011;2497;47.410;9.740;2023-12-28T04:14:01;4.90;;;2.97;;
4963;SDS011;2497;47.410;9.740;2023-12-28T04:16:28;2.23;;;2.07;;
4963;SDS011;2497;47.410;9.740;2023-12-28T04:18:55;1.40;;;1.10;;
4963;SDS011;2497;47.410;9.740;2023-12-28T04:21:22;4.37;;;2.77;;
4963;SDS011;2497;47.410;9.740;2023-12-28T04:23:50;1.80;;;1.67;;
4963;SDS011;2497;47.410;9.740;2023-12-28T04:26:17;5.63;;;2.20;;
4963;SDS011;2497;47.410;9.740;2023-12-28T04:28:45;4.93;;;2.13;;
4963;SDS011;2497;47.410;9.740;2023-12-28T04:31:12;3.27;;;2.47;;
4963;SDS011;2497;47.410;9.740;2023-12-28T04:33:39;3.57;;;1.93;;
4963;SDS011;2497;47.410;9.740;2023-12-28T04:36:07;1.70;;;1.43;;
4963;SDS011;2497;47.410;9.740;2023-12-28T04:38:34;3.17;;;2.77;;
4963;SDS011;2497;47.410;9.740;2023-12-28T04:41:02;1.10;;;1.00;;
4963;SDS011;2497;47.410;9.740;2023-12-28T04:43:30;1.10;;;1.00;;
4963;SDS011;2497;47.410;9.740;2023-12-28T04:45:57;1.20;;;1.10;;
4963;SDS011;2497;47.410;9.740;2023-12-28T04:48:28;1.20;;;1.03;;
4963;SDS011;2497;47.410;9.740;2023-12-28T04:50:55;1.90;;;1.80;;
4963;SDS011;2497;47.410;9.740;2023-12-28T04:53:22;3.40;;;2.67;;
4963;SDS011;2497;47.410;9.740;2023-12-28T04:55:49;2.17;;;1.20;;
4963;SDS011;2497;47.410;9.740;2023-12-28T04:58:18;1.70;;;1.60;;
4963;SDS011;2497;47.410;9.740;2023-12-28T05:00:45;1.23;;;1.03;;
4963;SDS011;2497;47.410;9.740;2023-12-28T05:03:12;1.83;;;1.73;;
4963;SDS011;2497;47.410;9.740;2023-12-28T05:05:40;1.37;;;1.10;;
4963;SDS011;2497;47.410;9.740;2023-12-28T05:08:07;2.63;;;2.00;;
4963;SDS011;2497;47.410;9.740;2023-12-28T05:10:34;1.90;;;1.70;;
4963;SDS011;2497;47.410;9.740;2023-12-28T05:13:01;1.37;;;1.23;;
4963;SDS011;2497;47.410;9.740;2023-12-28T05:15:30;2.90;;;0.87;;
4963;SDS011;2497;47.410;9.740;2023-12-28T05:17:57;0.80;;;0.80;;
4963;SDS011;2497;47.410;9.740;2023-12-28T05:20:24;1.40;;;1.03;;
4963;SDS011;2497;47.410;9.740;2023-12-28T05:22:51;7.23;;;1.30;;
4963;SDS011;2497;47.410;9.740;2023-12-28T05:25:18;4.17;;;1.90;;
4963;SDS011;2497;47.410;9.740;2023-12-28T05:27:45;1.40;;;1.30;;
4963;SDS011;2497;47.410;9.740;2023-12-28T05:30:12;3.63;;;1.63;;
4963;SDS011;2497;47.410;9.740;2023-12-28T05:32:41;3.20;;;1.63;;
4963;SDS011;2497;47.410;9.740;2023-12-28T05:35:08;4.13;;;2.43;;
4963;SDS011;2497;47.410;9.740;2023-12-28T05:37:35;1.70;;;1.57;;
4963;SDS011;2497;47.410;9.740;2023-12-28T05:40:02;3.53;;;1.50;;
4963;SDS011;2497;47.410;9.740;2023-12-28T05:42:29;2.37;;;1.87;;
4963;SDS011;2497;47.410;9.740;2023-12-28T05:44:56;2.50;;;2.30;;
4963;SDS011;2497;47.410;9.740;2023-12-28T05:47:23;2.43;;;1.77;;
4963;SDS011;2497;47.410;9.740;2023-12-28T05:49:52;3.97;;;1.70;;
4963;SDS011;2497;47.410;9.740;2023-12-28T05:52:19;3.03;;;2.13;;
4963;SDS011;2497;47.410;9.740;2023-12-28T05:54:46;4.40;;;2.33;;
4963;SDS011;2497;47.410;9.740;2023-12-28T05:57:14;2.87;;;1.83;;
4963;SDS011;2497;47.410;9.740;2023-12-28T05:59:41;3.40;;;2.03;;
4963;SDS011;2497;47.410;9.740;2023-12-28T06:02:08;2.30;;;2.03;;
4963;SDS011;2497;47.410;9.740;2023-12-28T06:04:35;3.27;;;1.77;;
4963;SDS011;2497;47.410;9.740;2023-12-28T06:07:03;2.40;;;2.17;;
4963;SDS011;2497;47.410;9.740;2023-12-28T06:09:31;1.80;;;1.40;;
4963;SDS011;2497;47.410;9.740;2023-12-28T06:11:58;3.73;;;3.33;;
4963;SDS011;2497;47.410;9.740;2023-12-28T06:14:25;4.40;;;3.67;;
4963;SDS011;2497;47.410;9.740;2023-12-28T06:16:52;7.03;;;4.97;;
4963;SDS011;2497;47.410;9.740;2023-12-28T06:19:19;3.93;;;3.53;;
4963;SDS011;2497;47.410;9.740;2023-12-28T06:21:47;11.37;;;3.10;;
4963;SDS011;2497;47.410;9.740;2023-12-28T06:24:15;3.23;;;1.77;;
4963;SDS011;2497;47.410;9.740;2023-12-28T06:26:43;1.70;;;1.60;;
4963;SDS011;2497;47.410;9.740;2023-12-28T06:29:10;1.90;;;1.80;;
4963;SDS011;2497;47.410;9.740;2023-12-28T06:31:38;1.83;;;1.70;;
4963;SDS011;2497;47.410;9.740;2023-12-28T06:34:05;1.10;;;1.00;;
4963;SDS011;2497;47.410;9.740;2023-12-28T06:36:32;4.63;;;1.40;;
4963;SDS011;2497;47.410;9.740;2023-12-28T06:39:00;3.63;;;1.83;;
4963;SDS011;2497;47.410;9.740;2023-12-28T06:41:28;4.90;;;2.70;;
4963;SDS011;2497;47.410;9.740;2023-12-28T06:43:55;1.80;;;1.10;;
4963;SDS011;2497;47.410;9.740;2023-12-28T06:46:22;1.63;;;1.52;;
4963;SDS011;2497;47.410;9.740;2023-12-28T06:48:50;2.33;;;1.70;;
4963;SDS011;2497;47.410;9.740;2023-12-28T06:51:17;1.40;;;1.20;;
4963;SDS011;2497;47.410;9.740;2023-12-28T06:53:45;1.20;;;1.07;;
4963;SDS011;2497;47.410;9.740;2023-12-28T06:56:12;8.27;;;4.03;;
4963;SDS011;2497;47.410;9.740;2023-12-28T06:58:41;2.47;;;1.83;;
4963;SDS011;2497;47.410;9.740;2023-12-28T07:01:08;1.60;;;1.43;;
4963;SDS011;2497;47.410;9.740;2023-12-28T07:03:36;2.20;;;2.10;;
4963;SDS011;2497;47.410;9.740;2023-12-28T07:06:03;2.20;;;1.17;;
4963;SDS011;2497;47.410;9.740;2023-12-28T07:08:30;1.90;;;1.60;;
4963;SDS011;2497;47.410;9.740;2023-12-28T07:10:57;1.40;;;1.30;;
4963;SDS011;2497;47.410;9.740;2023-12-28T07:13:24;12.73;;;1.90;;
4963;SDS011;2497;47.410;9.740;2023-12-28T07:15:54;3.00;;;2.67;;
4963;SDS011;2497;47.410;9.740;2023-12-28T07:18:21;5.33;;;1.83;;
4963;SDS011;2497;47.410;9.740;2023-12-28T07:20:48;2.97;;;2.77;;
4963;SDS011;2497;47.410;9.740;2023-12-28T07:23:15;5.43;;;3.57;;
4963;SDS011;2497;47.410;9.740;2023-12-28T07:25:42;10.03;;;4.03;;
4963;SDS011;2497;47.410;9.740;2023-12-28T07:28:10;13.53;;;2.60;;
4963;SDS011;2497;47.410;9.740;2023-12-28T07:30:37;6.30;;;3.17;;
4963;SDS011;2497;47.410;9.740;2023-12-28T07:33:05;1.80;;;1.70;;
4963;SDS011;2497;47.410;9.740;2023-12-28T07:35:32;5.33;;;1.67;;
4963;SDS011;2497;47.410;9.740;2023-12-28T07:37:59;2.50;;;1.80;;
4963;SDS011;2497;47.410;9.740;2023-12-28T07:40:27;2.60;;;1.87;;
4963;SDS011;2497;47.410;9.740;2023-12-28T07:42:57;3.50;;;2.97;;
4963;SDS011;2497;47.410;9.740;2023-12-28T07:45:26;6.27;;;2.33;;
4963;SDS011;2497;47.410;9.740;2023-12-28T07:47:53;2.90;;;1.40;;
4963;SDS011;2497;47.410;9.740;2023-12-28T07:50:22;1.50;;;1.40;;
4963;SDS011;2497;47.410;9.740;2023-12-28T07:52:49;2.20;;;2.10;;
4963;SDS011;2497;47.410;9.740;2023-12-28T07:55:16;1.77;;;1.67;;
4963;SDS011;2497;47.410;9.740;2023-12-28T07:57:43;2.30;;;1.80;;
4963;SDS011;2497;47.410;9.740;2023-12-28T08:00:10;3.77;;;3.07;;
4963;SDS011;2497;47.410;9.740;2023-12-28T08:02:38;6.57;;;2.50;;
4963;SDS011;2497;47.410;9.740;2023-12-28T08:05:05;1.47;;;1.37;;
4963;SDS011;2497;47.410;9.740;2023-12-28T08:07:34;2.20;;;1.47;;
4963;SDS011;2497;47.410;9.740;2023-12-28T08:10:01;2.97;;;1.43;;
4963;SDS011;2497;47.410;9.740;2023-12-28T08:12:29;2.43;;;1.77;;
4963;SDS011;2497;47.410;9.740;2023-12-28T08:14:56;3.40;;;1.30;;
4963;SDS011;2497;47.410;9.740;2023-12-28T08:17:25;1.53;;;1.10;;
4963;SDS011;2497;47.410;9.740;2023-12-28T08:19:52;3.10;;;1.93;;
4963;SDS011;2497;47.410;9.740;2023-12-28T08:22:20;2.10;;;1.90;;
4963;SDS011;2497;47.410;9.740;2023-12-28T08:24:49;5.27;;;1.30;;
4963;SDS011;2497;47.410;9.740;2023-12-28T08:27:16;1.97;;;1.60;;
4963;SDS011;2497;47.410;9.740;2023-12-28T08:29:43;2.30;;;1.53;;
4963;SDS011;2497;47.410;9.740;2023-12-28T08:32:10;1.40;;;1.30;;
4963;SDS011;2497;47.410;9.740;2023-12-28T08:34:37;1.40;;;1.30;;
4963;SDS011;2497;47.410;9.740;2023-12-28T08:37:04;2.70;;;1.33;;
4963;SDS011;2497;47.410;9.740;2023-12-28T08:39:32;2.17;;;1.97;;
4963;SDS011;2497;47.410;9.740;2023-12-28T08:42:04;1.73;;;1.63;;
4963;SDS011;2497;47.410;9.740;2023-12-28T08:44:31;1.60;;;1.50;;
4963;SDS011;2497;47.410;9.740;2023-12-28T08:46:59;4.90;;;1.57;;
4963;SDS011;2497;47.410;9.740;2023-12-28T08:49:27;4.37;;;1.57;;
4963;SDS011;2497;47.410;9.740;2023-12-28T08:51:54;2.73;;;2.00;;
4963;SDS011;2497;47.410;9.740;2023-12-28T08:54:21;1.67;;;1.43;;
4963;SDS011;2497;47.410;9.740;2023-12-28T08:56:48;3.33;;;1.10;;
4963;SDS011;2497;47.410;9.740;2023-12-28T08:59:16;1.40;;;1.20;;
4963;SDS011;2497;47.410;9.740;2023-12-28T09:01:44;3.50;;;1.43;;
4963;SDS011;2497;47.410;9.740;2023-12-28T09:04:11;4.13;;;1.50;;
4963;SDS011;2497;47.410;9.740;2023-12-28T09:06:39;7.63;;;5.87;;
4963;SDS011;2497;47.410;9.740;2023-12-28T09:09:06;3.60;;;2.97;;
4963;SDS011;2497;47.410;9.740;2023-12-28T09:11:33;4.30;;;3.70;;
4963;SDS011;2497;47.410;9.740;2023-12-28T09:14:04;11.30;;;4.70;;
4963;SDS011;2497;47.410;9.740;2023-12-28T09:16:33;5.27;;;3.13;;
4963;SDS011;2497;47.410;9.740;2023-12-28T09:19:00;9.17;;;4.80;;
4963;SDS011;2497;47.410;9.740;2023-12-28T09:21:27;5.30;;;3.83;;
4963;SDS011;2497;47.410;9.740;2023-12-28T09:23:54;3.10;;;2.70;;
4963;SDS011;2497;47.410;9.740;2023-12-28T09:26:21;7.90;;;4.17;;
4963;SDS011;2497;47.410;9.740;2023-12-28T09:28:48;3.07;;;2.27;;
4963;SDS011;2497;47.410;9.740;2023-12-28T09:31:15;3.93;;;3.37;;
4963;SDS011;2497;47.410;9.740;2023-12-28T09:33:44;10.00;;;3.50;;
4963;SDS011;2497;47.410;9.740;2023-12-28T09:36:11;8.73;;;4.70;;
4963;SDS011;2497;47.410;9.740;2023-12-28T09:38:38;9.90;;;4.10;;
4963;SDS011;2497;47.410;9.740;2023-12-28T09:41:08;9.80;;;3.10;;
4963;SDS011;2497;47.410;9.740;2023-12-28T09:43:41;4.33;;;2.13;;
4963;SDS011;2497;47.410;9.740;2023-12-28T09:46:15;3.27;;;2.73;;
4963;SDS011;2497;47.410;9.740;2023-12-28T09:48:44;2.77;;;2.30;;
4963;SDS011;2497;47.410;9.740;2023-12-28T09:51:11;2.40;;;2.20;;
4963;SDS011;2497;47.410;9.740;2023-12-28T09:53:39;4.50;;;2.83;;
4963;SDS011;2497;47.410;9.740;2023-12-28T09:56:06;6.60;;;3.80;;
4963;SDS011;2497;47.410;9.740;2023-12-28T09:58:33;4.97;;;3.97;;
4963;SDS011;2497;47.410;9.740;2023-12-28T10:01:05;3.80;;;2.33;;
4963;SDS011;2497;47.410;9.740;2023-12-28T10:03:37;3.53;;;2.50;;
4963;SDS011;2497;47.410;9.740;2023-12-28T10:06:05;4.17;;;2.73;;
4963;SDS011;2497;47.410;9.740;2023-12-28T10:08:32;4.40;;;3.87;;
4963;SDS011;2497;47.410;9.740;2023-12-28T10:11:01;2.50;;;1.70;;
4963;SDS011;2497;47.410;9.740;2023-12-28T10:13:29;4.67;;;4.27;;
4963;SDS011;2497;47.410;9.740;2023-12-28T10:16:00;6.10;;;2.63;;
4963;SDS011;2497;47.410;9.740;2023-12-28T10:18:28;3.60;;;2.00;;
4963;SDS011;2497;47.410;9.740;2023-12-28T10:20:56;5.63;;;2.70;;
4963;SDS011;2497;47.410;9.740;2023-12-28T10:23:24;3.33;;;2.17;;
4963;SDS011;2497;47.410;9.740;2023-12-28T10:25:55;11.13;;;2.53;;
4963;SDS011;2497;47.410;9.740;2023-12-28T10:28:23;4.20;;;2.30;;
4963;SDS011;2497;47.410;9.740;2023-12-28T10:30:53;6.70;;;3.27;;
4963;SDS011;2497;47.410;9.740;2023-12-28T10:33:21;4.33;;;2.30;;
4963;SDS011;2497;47.410;9.740;2023-12-28T10:35:48;5.23;;;2.40;;
4963;SDS011;2497;47.410;9.740;2023-12-28T10:38:17;2.80;;;2.07;;
4963;SDS011;2497;47.410;9.740;2023-12-28T10:40:47;7.13;;;3.03;;
4963;SDS011;2497;47.410;9.740;2023-12-28T10:43:15;7.23;;;3.30;;
4963;SDS011;2497;47.410;9.740;2023-12-28T10:45:46;2.43;;;1.97;;
4963;SDS011;2497;47.410;9.740;2023-12-28T10:48:16;3.97;;;1.77;;
4963;SDS011;2497;47.410;9.740;2023-12-28T10:50:50;8.50;;;2.50;;
4963;SDS011;2497;47.410;9.740;2023-12-28T10:53:21;7.63;;;2.90;;
4963;SDS011;2497;47.410;9.740;2023-12-28T10:56:03;1.83;;;1.53;;
4963;SDS011;2497;47.410;9.740;2023-12-28T10:58:41;4.50;;;3.40;;
4963;SDS011;2497;47.410;9.740;2023-12-28T11:01:14;10.83;;;3.20;;
4963;SDS011;2497;47.410;9.740;2023-12-28T11:03:58;3.20;;;2.00;;
4963;SDS011;2497;47.410;9.740;2023-12-28T11:06:31;4.20;;;2.37;;
4963;SDS011;2497;47.410;9.740;2023-12-28T11:08:59;11.77;;;3.10;;
4963;SDS011;2497;47.410;9.740;2023-12-28T11:11:29;2.80;;;2.50;;
4963;SDS011;2497;47.410;9.740;2023-12-28T11:13:59;8.93;;;3.50;;
4963;SDS011;2497;47.410;9.740;2023-12-28T11:16:27;4.80;;;2.30;;
4963;SDS011;2497;47.410;9.740;2023-12-28T11:18:55;2.80;;;1.70;;
4963;SDS011;2497;47.410;9.740;2023-12-28T11:21:23;2.73;;;2.53;;
4963;SDS011;2497;47.410;9.740;2023-12-28T11:23:54;5.07;;;2.10;;
4963;SDS011;2497;47.410;9.740;2023-12-28T11:26:22;4.83;;;2.53;;
4963;SDS011;2497;47.410;9.740;2023-12-28T11:28:51;2.20;;;2.00;;
4963;SDS011;2497;47.410;9.740;2023-12-28T11:31:27;5.03;;;1.83;;
4963;SDS011;2497;47.410;9.740;2023-12-28T11:33:54;5.23;;;2.23;;
4963;SDS011;2497;47.410;9.740;2023-12-28T11:36:22;3.00;;;2.50;;
4963;SDS011;2497;47.410;9.740;2023-12-28T11:38:52;1.63;;;1.53;;
4963;SDS011;2497;47.410;9.740;2023-12-28T11:41:24;2.80;;;2.00;;
4963;SDS011;2497;47.410;9.740;2023-12-28T11:43:53;2.17;;;1.97;;
4963;SDS011;2497;47.410;9.740;2023-12-28T11:46:21;1.67;;;1.57;;
4963;SDS011;2497;47.410;9.740;2023-12-28T11:48:48;7.03;;;3.33;;
4963;SDS011;2497;47.410;9.740;2023-12-28T11:51:16;2.47;;;1.93;;
4963;SDS011;2497;47.410;9.740;2023-12-28T11:53:43;3.60;;;2.50;;
4963;SDS011;2497;47.410;9.740;2023-12-28T11:56:14;2.20;;;1.93;;
4963;SDS011;2497;47.410;9.740;2023-12-28T11:58:45;6.43;;;2.73;;
4963;SDS011;2497;47.410;9.740;2023-12-28T12:01:17;1.83;;;1.30;;
4963;SDS011;2497;47.410;9.740;2023-12-28T12:03:44;3.00;;;2.47;;
4963;SDS011;2497;47.410;9.740;2023-12-28T12:06:11;6.57;;;2.97;;
4963;SDS011;2497;47.410;9.740;2023-12-28T12:08:39;14.03;;;3.20;;
4963;SDS011;2497;47.410;9.740;2023-12-28T12:11:06;12.33;;;3.67;;
4963;SDS011;2497;47.410;9.740;2023-12-28T12:13:33;2.30;;;2.10;;
4963;SDS011;2497;47.410;9.740;2023-12-28T12:16:02;3.03;;;2.60;;
4963;SDS011;2497;47.410;9.740;2023-12-28T12:18:32;3.53;;;2.67;;
4963;SDS011;2497;47.410;9.740;2023-12-28T12:20:59;1.90;;;1.80;;
4963;SDS011;2497;47.410;9.740;2023-12-28T12:23:27;5.80;;;3.20;;
4963;SDS011;2497;47.410;9.740;2023-12-28T12:25:54;4.60;;;2.60;;
4963;SDS011;2497;47.410;9.740;2023-12-28T12:28:21;2.90;;;2.13;;
4963;SDS011;2497;47.410;9.740;2023-12-28T12:30:52;4.73;;;3.47;;
4963;SDS011;2497;47.410;9.740;2023-12-28T12:33:22;2.33;;;1.67;;
4963;SDS011;2497;47.410;9.740;2023-12-28T12:35:52;4.20;;;2.87;;
4963;SDS011;2497;47.410;9.740;2023-12-28T12:38:19;3.93;;;1.90;;
4963;SDS011;2497;47.410;9.740;2023-12-28T12:40:46;8.03;;;2.80;;
4963;SDS011;2497;47.410;9.740;2023-12-28T12:43:13;3.33;;;3.03;;
4963;SDS011;2497;47.410;9.740;2023-12-28T12:45:41;3.53;;;3.23;;
4963;SDS011;2497;47.410;9.740;2023-12-28T12:48:08;4.90;;;3.10;;
4963;SDS011;2497;47.410;9.740;2023-12-28T12:50:35;5.87;;;2.87;;
4963;SDS011;2497;47.410;9.740;2023-12-28T12:53:05;6.10;;;4.20;;
4963;SDS011;2497;47.410;9.740;2023-12-28T12:55:32;9.03;;;4.10;;
4963;SDS011;2497;47.410;9.740;2023-12-28T12:58:00;6.90;;;5.00;;
4963;SDS011;2497;47.410;9.740;2023-12-28T13:00:27;4.80;;;3.27;;
4963;SDS011;2497;47.410;9.740;2023-12-28T13:02:54;9.43;;;4.60;;
4963;SDS011;2497;47.410;9.740;2023-12-28T13:05:30;5.10;;;2.90;;
4963;SDS011;2497;47.410;9.740;2023-12-28T13:08:10;10.97;;;4.20;;
4963;SDS011;2497;47.410;9.740;2023-12-28T13:10:37;3.23;;;2.80;;
4963;SDS011;2497;47.410;9.740;2023-12-28T13:13:06;5.67;;;3.73;;
4963;SDS011;2497;47.410;9.740;2023-12-28T13:15:33;5.47;;;3.10;;
4963;SDS011;2497;47.410;9.740;2023-12-28T13:18:17;3.00;;;2.30;;
4963;SDS011;2497;47.410;9.740;2023-12-28T13:20:52;6.43;;;3.00;;
4963;SDS011;2497;47.410;9.740;2023-12-28T13:23:20;5.77;;;2.80;;
4963;SDS011;2497;47.410;9.740;2023-12-28T13:25:47;4.97;;;2.87;;
4963;SDS011;2497;47.410;9.740;2023-12-28T13:28:14;6.80;;;5.67;;
4963;SDS011;2497;47.410;9.740;2023-12-28T13:30:42;9.37;;;4.17;;
4963;SDS011;2497;47.410;9.740;2023-12-28T13:33:10;6.50;;;2.87;;
4963;SDS011;2497;47.410;9.740;2023-12-28T13:35:38;5.40;;;3.90;;
4963;SDS011;2497;47.410;9.740;2023-12-28T13:38:05;7.27;;;5.37;;
4963;SDS011;2497;47.410;9.740;2023-12-28T13:40:34;5.33;;;3.97;;
4963;SDS011;2497;47.410;9.740;2023-12-28T13:43:02;5.60;;;3.07;;
4963;SDS011;2497;47.410;9.740;2023-12-28T13:45:31;4.30;;;3.63;;
4963;SDS011;2497;47.410;9.740;2023-12-28T13:47:58;6.83;;;4.70;;
4963;SDS011;2497;47.410;9.740;2023-12-28T13:50:25;4.00;;;3.33;;
4963;SDS011;2497;47.410;9.740;2023-12-28T13:52:53;15.43;;;4.40;;
4963;SDS011;2497;47.410;9.740;2023-12-28T13:55:20;5.23;;;3.17;;
4963;SDS011;2497;47.410;9.740;2023-12-28T13:57:49;5.77;;;4.30;;
4963;SDS011;2497;47.410;9.740;2023-12-28T14:00:17;8.63;;;4.17;;
4963;SDS011;2497;47.410;9.740;2023-12-28T14:02:44;12.20;;;3.27;;
4963;SDS011;2497;47.410;9.740;2023-12-28T14:05:11;7.33;;;3.33;;
4963;SDS011;2497;47.410;9.740;2023-12-28T14:07:39;8.03;;;3.63;;
4963;SDS011;2497;47.410;9.740;2023-12-28T14:10:06;6.07;;;2.93;;
4963;SDS011;2497;47.410;9.740;2023-12-28T14:12:34;3.40;;;2.90;;
4963;SDS011;2497;47.410;9.740;2023-12-28T14:15:03;4.30;;;3.90;;
4963;SDS011;2497;47.410;9.740;2023-12-28T14:17:30;3.47;;;3.17;;
4963;SDS011;2497;47.410;9.740;2023-12-28T14:19:57;3.87;;;3.50;;
4963;SDS011;2497;47.410;9.740;2023-12-28T14:22:25;5.40;;;4.10;;
4963;SDS011;2497;47.410;9.740;2023-12-28T14:24:52;11.73;;;4.57;;
4963;SDS011;2497;47.410;9.740;2023-12-28T14:27:20;7.90;;;4.03;;
4963;SDS011;2497;47.410;9.740;2023-12-28T14:29:48;7.10;;;4.83;;
4963;SDS011;2497;47.410;9.740;2023-12-28T14:32:17;3.30;;;3.00;;
4963;SDS011;2497;47.410;9.740;2023-12-28T14:34:46;5.50;;;3.70;;
4963;SDS011;2497;47.410;9.740;2023-12-28T14:37:14;4.53;;;3.50;;
4963;SDS011;2497;47.410;9.740;2023-12-28T14:39:41;6.83;;;4.60;;
4963;SDS011;2497;47.410;9.740;2023-12-28T14:42:09;4.30;;;3.90;;
4963;SDS011;2497;47.410;9.740;2023-12-28T14:44:39;7.43;;;4.90;;
4963;SDS011;2497;47.410;9.740;2023-12-28T14:47:09;10.33;;;5.83;;
4963;SDS011;2497;47.410;9.740;2023-12-28T14:49:37;9.80;;;6.00;;
4963;SDS011;2497;47.410;9.740;2023-12-28T14:52:05;10.03;;;4.17;;
4963;SDS011;2497;47.410;9.740;2023-12-28T14:54:32;9.83;;;6.00;;
4963;SDS011;2497;47.410;9.740;2023-12-28T14:56:59;6.13;;;5.43;;
4963;SDS011;2497;47.410;9.740;2023-12-28T14:59:26;9.60;;;4.73;;
4963;SDS011;2497;47.410;9.740;2023-12-28T15:01:53;13.30;;;4.73;;
4963;SDS011;2497;47.410;9.740;2023-12-28T15:04:20;6.03;;;4.57;;
4963;SDS011;2497;47.410;9.740;2023-12-28T15:06:49;5.90;;;4.00;;
4963;SDS011;2497;47.410;9.740;2023-12-28T15:09:16;7.37;;;4.50;;
4963;SDS011;2497;47.410;9.740;2023-12-28T15:11:43;10.73;;;6.03;;
4963;SDS011;2497;47.410;9.740;2023-12-28T15:14:11;11.87;;;4.33;;
4963;SDS011;2497;47.410;9.740;2023-12-28T15:16:38;7.17;;;5.03;;
4963;SDS011;2497;47.410;9.740;2023-12-28T15:19:06;7.23;;;4.43;;
4963;SDS011;2497;47.410;9.740;2023-12-28T15:21:33;9.70;;;4.67;;